Terminal Aerodrome Forecast
Issued by NWS

Home | Current Version | Previous Version | Text Only | Print | Product List | Glossary On
Versions: 1 2 3 4 5 6 7 8 9 10 11 12
000
FTUS46 KSEW 202335
TAFCLM
TAF
KCLM 202335Z 2100/2124 34010KT P6SM SCT250
     FM210900 29005KT P6SM BKN006
     FM211700 29006KT P6SM SKC=

USA.gov is the U.S. government's official web portal to all federal, state and local government web resources and services.